sensor_id;sensor_type;location;lat;lon;timestamp;pressure;altitude;pressure_sealevel;temperature;humidity
2188;BME280;1100;52.014;8.540;2023-01-25T00:01:41;102240.38;;;-1.39;90.51
2188;BME280;1100;52.014;8.540;2023-01-25T00:04:07;102235.91;;;-1.34;90.55
2188;BME280;1100;52.014;8.540;2023-01-25T00:06:32;102241.59;;;-1.31;90.28
2188;BME280;1100;52.014;8.540;2023-01-25T00:08:57;102235.53;;;-1.28;90.41
2188;BME280;1100;52.014;8.540;2023-01-25T00:11:23;102239.38;;;-1.29;90.09
2188;BME280;1100;52.014;8.540;2023-01-25T00:13:48;102239.47;;;-1.34;90.18
2188;BME280;1100;52.014;8.540;2023-01-25T00:16:13;102235.41;;;-1.36;90.22
2188;BME280;1100;52.014;8.540;2023-01-25T00:18:39;102219.94;;;-1.41;90.40
2188;BME280;1100;52.014;8.540;2023-01-25T00:21:12;102222.97;;;-1.43;90.27
2188;BME280;1100;52.014;8.540;2023-01-25T00:23:37;102214.78;;;-1.43;90.23
2188;BME280;1100;52.014;8.540;2023-01-25T00:26:03;102214.31;;;-1.45;90.17
2188;BME280;1100;52.014;8.540;2023-01-25T00:28:28;102196.59;;;-1.47;90.18
2188;BME280;1100;52.014;8.540;2023-01-25T00:36:48;102187.81;;;-1.44;90.60
2188;BME280;1100;52.014;8.540;2023-01-25T00:39:14;102190.75;;;-1.41;90.42
2188;BME280;1100;52.014;8.540;2023-01-25T00:41:40;102177.63;;;-1.39;90.55
2188;BME280;1100;52.014;8.540;2023-01-25T00:44:05;102189.00;;;-1.36;90.45
2188;BME280;1100;52.014;8.540;2023-01-25T00:46:31;102187.91;;;-1.35;90.45
2188;BME280;1100;52.014;8.540;2023-01-25T00:48:56;102181.34;;;-1.34;90.46
2188;BME280;1100;52.014;8.540;2023-01-25T00:51:22;102186.19;;;-1.31;90.49
2188;BME280;1100;52.014;8.540;2023-01-25T00:53:48;102184.59;;;-1.32;90.50
2188;BME280;1100;52.014;8.540;2023-01-25T00:56:14;102187.63;;;-1.34;90.35
2188;BME280;1100;52.014;8.540;2023-01-25T00:58:40;102182.97;;;-1.33;90.44
2188;BME280;1100;52.014;8.540;2023-01-25T01:01:05;102179.44;;;-1.34;90.42
2188;BME280;1100;52.014;8.540;2023-01-25T01:03:31;102188.53;;;-1.39;90.27
2188;BME280;1100;52.014;8.540;2023-01-25T01:06:05;102175.50;;;-1.42;90.28
2188;BME280;1100;52.014;8.540;2023-01-25T01:08:37;102179.31;;;-1.43;90.48
2188;BME280;1100;52.014;8.540;2023-01-25T01:11:05;102168.41;;;-1.43;90.43
2188;BME280;1100;52.014;8.540;2023-01-25T01:23:36;102177.81;;;-1.49;90.53
2188;BME280;1100;52.014;8.540;2023-01-25T01:26:03;102175.91;;;-1.48;90.49
2188;BME280;1100;52.014;8.540;2023-01-25T01:28:30;102176.72;;;-1.48;90.50
2188;BME280;1100;52.014;8.540;2023-01-25T01:31:02;102173.16;;;-1.48;90.29
2188;BME280;1100;52.014;8.540;2023-01-25T01:33:28;102175.59;;;-1.47;90.59
2188;BME280;1100;52.014;8.540;2023-01-25T01:35:53;102174.00;;;-1.48;90.68
2188;BME280;1100;52.014;8.540;2023-01-25T01:38:19;102177.81;;;-1.49;90.18
2188;BME280;1100;52.014;8.540;2023-01-25T01:40:44;102169.63;;;-1.49;90.52
2188;BME280;1100;52.014;8.540;2023-01-25T01:43:23;102176.59;;;-1.43;90.60
2188;BME280;1100;52.014;8.540;2023-01-25T01:45:54;102180.13;;;-1.42;90.66
2188;BME280;1100;52.014;8.540;2023-01-25T01:51:07;102182.56;;;-1.41;90.65
2188;BME280;1100;52.014;8.540;2023-01-25T01:53:36;102178.22;;;-1.42;90.52
2188;BME280;1100;52.014;8.540;2023-01-25T01:56:07;102184.47;;;-1.41;90.26
2188;BME280;1100;52.014;8.540;2023-01-25T01:58:35;102188.31;;;-1.42;90.43
2188;BME280;1100;52.014;8.540;2023-01-25T02:01:01;102175.00;;;-1.44;90.49
2188;BME280;1100;52.014;8.540;2023-01-25T02:03:27;102173.38;;;-1.45;90.41
2188;BME280;1100;52.014;8.540;2023-01-25T02:06:07;102174.47;;;-1.46;90.44
2188;BME280;1100;52.014;8.540;2023-01-25T02:08:34;102166.72;;;-1.53;90.50
2188;BME280;1100;52.014;8.540;2023-01-25T02:11:02;102170.22;;;-1.52;90.48
2188;BME280;1100;52.014;8.540;2023-01-25T02:13:27;102172.47;;;-1.54;90.55
2188;BME280;1100;52.014;8.540;2023-01-25T02:15:53;102172.47;;;-1.54;90.27
2188;BME280;1100;52.014;8.540;2023-01-25T02:18:21;102172.66;;;-1.51;90.43
2188;BME280;1100;52.014;8.540;2023-01-25T02:20:50;102171.06;;;-1.52;90.44
2188;BME280;1100;52.014;8.540;2023-01-25T02:23:30;102163.19;;;-1.53;90.71
2188;BME280;1100;52.014;8.540;2023-01-25T02:26:02;102156.59;;;-1.52;90.61
2188;BME280;1100;52.014;8.540;2023-01-25T02:28:33;102157.41;;;-1.52;90.63
2188;BME280;1100;52.014;8.540;2023-01-25T02:31:00;102153.88;;;-1.52;90.39
2188;BME280;1100;52.014;8.540;2023-01-25T02:33:26;102152.56;;;-1.55;90.07
2188;BME280;1100;52.014;8.540;2023-01-25T02:35:56;102159.75;;;-1.59;90.36
2188;BME280;1100;52.014;8.540;2023-01-25T02:38:23;102155.09;;;-1.58;90.44
2188;BME280;1100;52.014;8.540;2023-01-25T02:41:03;102151.88;;;-1.60;90.44
2188;BME280;1100;52.014;8.540;2023-01-25T02:43:32;102161.34;;;-1.58;90.68
2188;BME280;1100;52.014;8.540;2023-01-25T02:46:10;102154.09;;;-1.63;90.26
2188;BME280;1100;52.014;8.540;2023-01-25T02:48:37;102141.28;;;-1.62;90.48
2188;BME280;1100;52.014;8.540;2023-01-25T02:51:06;102147.50;;;-1.61;90.72
2188;BME280;1100;52.014;8.540;2023-01-25T02:53:31;102140.16;;;-1.61;90.57
2188;BME280;1100;52.014;8.540;2023-01-25T02:55:57;102134.91;;;-1.57;90.66
2188;BME280;1100;52.014;8.540;2023-01-25T02:58:22;102133.78;;;-1.56;90.43
2188;BME280;1100;52.014;8.540;2023-01-25T03:00:47;102133.16;;;-1.53;90.72
2188;BME280;1100;52.014;8.540;2023-01-25T03:03:12;102134.47;;;-1.51;90.73
2188;BME280;1100;52.014;8.540;2023-01-25T03:05:38;102128.41;;;-1.47;90.78
2188;BME280;1100;52.014;8.540;2023-01-25T03:08:03;102122.16;;;-1.48;90.54
2188;BME280;1100;52.014;8.540;2023-01-25T03:10:28;102114.28;;;-1.49;90.67
2188;BME280;1100;52.014;8.540;2023-01-25T03:12:54;102127.00;;;-1.45;90.59
2188;BME280;1100;52.014;8.540;2023-01-25T03:15:19;102119.72;;;-1.49;90.42
2188;BME280;1100;52.014;8.540;2023-01-25T03:17:44;102115.50;;;-1.56;90.46
2188;BME280;1100;52.014;8.540;2023-01-25T03:20:10;102113.06;;;-1.57;90.54
2188;BME280;1100;52.014;8.540;2023-01-25T03:22:36;102109.22;;;-1.56;90.67
2188;BME280;1100;52.014;8.540;2023-01-25T03:25:01;102106.50;;;-1.56;90.64
2188;BME280;1100;52.014;8.540;2023-01-25T03:27:28;102096.72;;;-1.57;90.64
2188;BME280;1100;52.014;8.540;2023-01-25T03:29:54;102093.47;;;-1.59;90.52
2188;BME280;1100;52.014;8.540;2023-01-25T03:32:19;102079.84;;;-1.59;90.73
2188;BME280;1100;52.014;8.540;2023-01-25T03:34:44;102081.94;;;-1.56;90.61
2188;BME280;1100;52.014;8.540;2023-01-25T03:37:10;102072.94;;;-1.57;90.74
2188;BME280;1100;52.014;8.540;2023-01-25T03:39:35;102066.41;;;-1.56;90.78
2188;BME280;1100;52.014;8.540;2023-01-25T03:42:00;102060.13;;;-1.56;90.97
2188;BME280;1100;52.014;8.540;2023-01-25T03:44:26;102064.75;;;-1.57;90.85
2188;BME280;1100;52.014;8.540;2023-01-25T03:46:51;102058.63;;;-1.63;90.54
2188;BME280;1100;52.014;8.540;2023-01-25T03:49:16;102060.38;;;-1.67;90.26
2188;BME280;1100;52.014;8.540;2023-01-25T03:51:42;102063.09;;;-1.67;90.56
2188;BME280;1100;52.014;8.540;2023-01-25T03:54:08;102064.69;;;-1.66;90.69
2188;BME280;1100;52.014;8.540;2023-01-25T03:56:34;102060.38;;;-1.67;90.69
2188;BME280;1100;52.014;8.540;2023-01-25T03:59:00;102063.56;;;-1.65;90.83
2188;BME280;1100;52.014;8.540;2023-01-25T04:01:25;102050.53;;;-1.68;90.82
2188;BME280;1100;52.014;8.540;2023-01-25T04:03:50;102050.06;;;-1.70;90.68
2188;BME280;1100;52.014;8.540;2023-01-25T04:06:16;102046.84;;;-1.72;90.73
2188;BME280;1100;52.014;8.540;2023-01-25T04:08:41;102046.84;;;-1.72;90.64
2188;BME280;1100;52.014;8.540;2023-01-25T04:11:08;102038.44;;;-1.76;90.50
2188;BME280;1100;52.014;8.540;2023-01-25T04:13:35;102039.06;;;-1.79;90.47
2188;BME280;1100;52.014;8.540;2023-01-25T04:16:01;102038.44;;;-1.76;90.79
2188;BME280;1100;52.014;8.540;2023-01-25T04:18:27;102042.81;;;-1.74;90.80
2188;BME280;1100;52.014;8.540;2023-01-25T04:20:53;102044.09;;;-1.72;90.72
2188;BME280;1100;52.014;8.540;2023-01-25T04:23:18;102031.91;;;-1.74;90.40
2188;BME280;1100;52.014;8.540;2023-01-25T04:25:57;102024.50;;;-1.74;90.81
2188;BME280;1100;52.014;8.540;2023-01-25T04:28:23;102036.53;;;-1.75;90.89
2188;BME280;1100;52.014;8.540;2023-01-25T04:30:49;102036.94;;;-1.82;90.44
2188;BME280;1100;52.014;8.540;2023-01-25T04:33:15;102035.13;;;-1.86;90.88
2188;BME280;1100;52.014;8.540;2023-01-25T04:35:40;102039.50;;;-1.85;90.94
2188;BME280;1100;52.014;8.540;2023-01-25T04:38:06;102037.75;;;-1.81;91.05
2188;BME280;1100;52.014;8.540;2023-01-25T04:40:31;102034.72;;;-1.80;90.77
2188;BME280;1100;52.014;8.540;2023-01-25T04:42:57;102037.75;;;-1.81;90.90
2188;BME280;1100;52.014;8.540;2023-01-25T04:45:23;102026.94;;;-1.86;90.79
2188;BME280;1100;52.014;8.540;2023-01-25T04:47:54;102024.34;;;-1.92;90.76
2188;BME280;1100;52.014;8.540;2023-01-25T04:50:19;102026.25;;;-1.92;90.86
2188;BME280;1100;52.014;8.540;2023-01-25T04:52:44;102023.03;;;-1.94;90.89
2188;BME280;1100;52.014;8.540;2023-01-25T04:55:10;102026.88;;;-1.95;90.83
2188;BME280;1100;52.014;8.540;2023-01-25T04:57:35;102023.84;;;-1.94;91.20
2188;BME280;1100;52.014;8.540;2023-01-25T05:00:00;102028.06;;;-1.88;91.22
2188;BME280;1100;52.014;8.540;2023-01-25T05:02:26;102023.03;;;-1.94;91.12
2188;BME280;1100;52.014;8.540;2023-01-25T05:04:51;102022.25;;;-1.95;91.24
2188;BME280;1100;52.014;8.540;2023-01-25T05:07:17;102023.22;;;-1.91;91.20
2188;BME280;1100;52.014;8.540;2023-01-25T05:09:42;102014.13;;;-1.86;91.44
2188;BME280;1100;52.014;8.540;2023-01-25T05:12:07;102015.63;;;-1.80;91.63
2188;BME280;1100;52.014;8.540;2023-01-25T05:14:36;102014.22;;;-1.77;91.36
2188;BME280;1100;52.014;8.540;2023-01-25T05:17:03;102019.34;;;-1.76;91.51
2188;BME280;1100;52.014;8.540;2023-01-25T05:19:28;102010.38;;;-1.76;91.50
2188;BME280;1100;52.014;8.540;2023-01-25T05:21:53;102009.25;;;-1.75;91.30
2188;BME280;1100;52.014;8.540;2023-01-25T05:24:22;102004.00;;;-1.71;91.26
2188;BME280;1100;52.014;8.540;2023-01-25T05:26:48;102015.84;;;-1.76;91.11
2188;BME280;1100;52.014;8.540;2023-01-25T05:29:29;102009.06;;;-1.79;91.17
2188;BME280;1100;52.014;8.540;2023-01-25T05:31:55;102011.63;;;-1.82;90.86
2188;BME280;1100;52.014;8.540;2023-01-25T05:34:20;102018.78;;;-1.86;91.26
2188;BME280;1100;52.014;8.540;2023-01-25T05:36:45;102011.09;;;-1.84;91.43
2188;BME280;1100;52.014;8.540;2023-01-25T05:39:11;102003.44;;;-1.82;91.23
2188;BME280;1100;52.014;8.540;2023-01-25T05:41:36;102006.47;;;-1.84;91.15
2188;BME280;1100;52.014;8.540;2023-01-25T05:44:02;102006.94;;;-1.82;91.38
2188;BME280;1100;52.014;8.540;2023-01-25T05:46:28;102008.28;;;-1.79;91.37
2188;BME280;1100;52.014;8.540;2023-01-25T05:48:54;102006.84;;;-1.77;91.51
2188;BME280;1100;52.014;8.540;2023-01-25T05:51:20;102008.66;;;-1.72;91.40
2188;BME280;1100;52.014;8.540;2023-01-25T05:53:46;102002.59;;;-1.69;91.37
2188;BME280;1100;52.014;8.540;2023-01-25T05:56:11;102005.31;;;-1.69;91.39
2188;BME280;1100;52.014;8.540;2023-01-25T05:58:37;102006.91;;;-1.68;91.48
2188;BME280;1100;52.014;8.540;2023-01-25T06:01:04;102001.47;;;-1.68;91.83
2188;BME280;1100;52.014;8.540;2023-01-25T06:03:30;101997.94;;;-1.68;91.46
2188;BME280;1100;52.014;8.540;2023-01-25T06:06:00;101994.50;;;-1.74;91.19
2188;BME280;1100;52.014;8.540;2023-01-25T06:08:27;101999.78;;;-1.78;91.33
2188;BME280;1100;52.014;8.540;2023-01-25T06:10:52;101991.59;;;-1.78;91.31
2188;BME280;1100;52.014;8.540;2023-01-25T06:13:18;101996.56;;;-1.80;91.38
2188;BME280;1100;52.014;8.540;2023-01-25T06:16:04;101992.22;;;-1.81;91.30
2188;BME280;1100;52.014;8.540;2023-01-25T06:18:30;101990.09;;;-1.84;91.34
2188;BME280;1100;52.014;8.540;2023-01-25T06:20:57;101983.03;;;-1.85;91.55
2188;BME280;1100;52.014;8.540;2023-01-25T06:23:23;101987.38;;;-1.84;91.70
2188;BME280;1100;52.014;8.540;2023-01-25T06:25:48;101987.38;;;-1.84;91.34
2188;BME280;1100;52.014;8.540;2023-01-25T06:28:13;101990.09;;;-1.84;91.25
2188;BME280;1100;52.014;8.540;2023-01-25T06:30:42;101980.59;;;-1.86;91.18
2188;BME280;1100;52.014;8.540;2023-01-25T06:33:07;101992.53;;;-1.82;91.46
2188;BME280;1100;52.014;8.540;2023-01-25T06:35:33;101989.00;;;-1.83;91.63
2188;BME280;1100;52.014;8.540;2023-01-25T06:37:59;101990.28;;;-1.80;91.65
2188;BME280;1100;52.014;8.540;2023-01-25T06:40:26;101996.56;;;-1.80;91.38
2188;BME280;1100;52.014;8.540;2023-01-25T06:42:52;101995.72;;;-1.80;91.34
2188;BME280;1100;52.014;8.540;2023-01-25T06:45:17;101995.72;;;-1.80;91.57
2188;BME280;1100;52.014;8.540;2023-01-25T06:47:43;101998.16;;;-1.79;91.26
2188;BME280;1100;52.014;8.540;2023-01-25T06:50:11;101990.28;;;-1.80;91.35
2188;BME280;1100;52.014;8.540;2023-01-25T06:52:37;101993.53;;;-1.78;91.49
2188;BME280;1100;52.014;8.540;2023-01-25T06:55:03;102003.31;;;-1.77;91.70
2188;BME280;1100;52.014;8.540;2023-01-25T06:57:29;102000.56;;;-1.77;91.65
2188;BME280;1100;52.014;8.540;2023-01-25T06:59:55;102000.56;;;-1.77;91.42
2188;BME280;1100;52.014;8.540;2023-01-25T07:02:23;101998.34;;;-1.75;91.42
2188;BME280;1100;52.014;8.540;2023-01-25T07:04:48;101991.59;;;-1.78;91.40
2188;BME280;1100;52.014;8.540;2023-01-25T07:07:14;101995.13;;;-1.77;91.50
2188;BME280;1100;52.014;8.540;2023-01-25T07:09:42;101993.53;;;-1.78;91.66
2188;BME280;1100;52.014;8.540;2023-01-25T07:12:08;101989.19;;;-1.79;91.45
2188;BME280;1100;52.014;8.540;2023-01-25T07:14:33;101988.25;;;-1.74;91.76
2188;BME280;1100;52.014;8.540;2023-01-25T07:16:59;101989.88;;;-1.73;91.59
2188;BME280;1100;52.014;8.540;2023-01-25T07:19:25;101990.59;;;-1.82;91.11
2188;BME280;1100;52.014;8.540;2023-01-25T07:21:50;101993.16;;;-1.85;91.43
2188;BME280;1100;52.014;8.540;2023-01-25T07:24:18;101984.44;;;-1.88;91.44
2188;BME280;1100;52.014;8.540;2023-01-25T07:26:47;101982.25;;;-1.85;91.73
2188;BME280;1100;52.014;8.540;2023-01-25T07:29:15;101995.56;;;-1.84;91.63
2188;BME280;1100;52.014;8.540;2023-01-25T07:31:43;101982.72;;;-1.83;91.30
2188;BME280;1100;52.014;8.540;2023-01-25T07:34:10;101982.41;;;-1.82;91.58
2188;BME280;1100;52.014;8.540;2023-01-25T07:36:37;101976.97;;;-1.82;91.78
2188;BME280;1100;52.014;8.540;2023-01-25T07:39:03;101976.97;;;-1.82;91.71
2188;BME280;1100;52.014;8.540;2023-01-25T07:41:35;101975.03;;;-1.81;91.60
2188;BME280;1100;52.014;8.540;2023-01-25T07:44:01;101973.91;;;-1.80;91.66
2188;BME280;1100;52.014;8.540;2023-01-25T07:46:27;101976.16;;;-1.82;91.74
2188;BME280;1100;52.014;8.540;2023-01-25T07:48:52;101972.94;;;-1.84;91.43
2188;BME280;1100;52.014;8.540;2023-01-25T07:51:20;101968.28;;;-1.84;91.67
2188;BME280;1100;52.014;8.540;2023-01-25T07:53:54;101971.69;;;-1.78;91.71
2188;BME280;1100;52.014;8.540;2023-01-25T07:56:22;101964.66;;;-1.79;91.31
2188;BME280;1100;52.014;8.540;2023-01-25T07:58:47;101970.09;;;-1.79;91.43
2188;BME280;1100;52.014;8.540;2023-01-25T08:01:16;101974.13;;;-1.77;91.72
2188;BME280;1100;52.014;8.540;2023-01-25T08:03:42;101969.97;;;-1.74;91.55
2188;BME280;1100;52.014;8.540;2023-01-25T08:06:08;101969.34;;;-1.71;91.70
2188;BME280;1100;52.014;8.540;2023-01-25T08:08:40;101966.63;;;-1.71;91.43
2188;BME280;1100;52.014;8.540;2023-01-25T08:11:12;101966.94;;;-1.72;91.33
2188;BME280;1100;52.014;8.540;2023-01-25T08:13:39;101964.97;;;-1.81;91.22
2188;BME280;1100;52.014;8.540;2023-01-25T08:16:08;101965.56;;;-1.84;91.39
2188;BME280;1100;52.014;8.540;2023-01-25T08:18:33;101966.50;;;-1.89;91.46
2188;BME280;1100;52.014;8.540;2023-01-25T08:20:59;101970.63;;;-1.91;91.36
2188;BME280;1100;52.014;8.540;2023-01-25T08:23:26;101969.22;;;-1.89;91.64
2188;BME280;1100;52.014;8.540;2023-01-25T08:25:54;101964.84;;;-1.90;91.69
2188;BME280;1100;52.014;8.540;2023-01-25T08:28:21;101956.38;;;-1.88;91.59
2188;BME280;1100;52.014;8.540;2023-01-25T08:30:46;101954.97;;;-1.85;91.91
2188;BME280;1100;52.014;8.540;2023-01-25T08:33:12;101952.34;;;-1.91;91.64
2188;BME280;1100;52.014;8.540;2023-01-25T08:35:37;101951.38;;;-1.95;91.35
2188;BME280;1100;52.014;8.540;2023-01-25T08:38:03;101945.09;;;-1.95;91.68
2188;BME280;1100;52.014;8.540;2023-01-25T08:40:32;101943.81;;;-1.98;91.51
2188;BME280;1100;52.014;8.540;2023-01-25T08:42:57;101945.91;;;-1.95;91.92
2188;BME280;1100;52.014;8.540;2023-01-25T08:45:23;101948.81;;;-1.91;91.88
2188;BME280;1100;52.014;8.540;2023-01-25T08:47:48;101945.28;;;-1.92;91.82
2188;BME280;1100;52.014;8.540;2023-01-25T08:50:13;101938.72;;;-1.91;91.88
2188;BME280;1100;52.014;8.540;2023-01-25T08:52:40;101940.63;;;-1.91;91.83
2188;BME280;1100;52.014;8.540;2023-01-25T08:55:08;101940.00;;;-1.88;91.84
2188;BME280;1100;52.014;8.540;2023-01-25T08:57:34;101935.38;;;-1.88;91.51
2188;BME280;1100;52.014;8.540;2023-01-25T08:59:59;101932.16;;;-1.90;91.76
2188;BME280;1100;52.014;8.540;2023-01-25T09:02:24;101931.16;;;-1.94;91.67
2188;BME280;1100;52.014;8.540;2023-01-25T09:04:50;101930.03;;;-1.93;91.71
2188;BME280;1100;52.014;8.540;2023-01-25T09:07:15;101924.78;;;-1.89;91.91
2188;BME280;1100;52.014;8.540;2023-01-25T09:09:40;101919.22;;;-1.84;91.92
2188;BME280;1100;52.014;8.540;2023-01-25T09:12:08;101921.81;;;-1.79;91.96
2188;BME280;1100;52.014;8.540;2023-01-25T09:14:33;101912.84;;;-1.79;91.82
2188;BME280;1100;52.014;8.540;2023-01-25T09:16:58;101915.56;;;-1.79;91.87
2188;BME280;1100;52.014;8.540;2023-01-25T09:19:24;101922.13;;;-1.80;91.77
2188;BME280;1100;52.014;8.540;2023-01-25T09:21:50;101916.81;;;-1.85;91.40
2188;BME280;1100;52.014;8.540;2023-01-25T09:24:15;101914.81;;;-1.94;91.35
2188;BME280;1100;52.014;8.540;2023-01-25T09:26:41;101913.69;;;-1.93;91.60
2188;BME280;1100;52.014;8.540;2023-01-25T09:29:07;101911.16;;;-1.89;91.86
2188;BME280;1100;52.014;8.540;2023-01-25T09:31:38;101907.31;;;-1.88;91.74
2188;BME280;1100;52.014;8.540;2023-01-25T09:34:04;101908.94;;;-1.87;91.71
2188;BME280;1100;52.014;8.540;2023-01-25T09:36:30;101907.59;;;-1.90;91.64
2188;BME280;1100;52.014;8.540;2023-01-25T09:38:55;101901.47;;;-1.95;91.74
2188;BME280;1100;52.014;8.540;2023-01-25T09:44:05;101906.44;;;-1.97;91.89
2188;BME280;1100;52.014;8.540;2023-01-25T09:53:20;101896.34;;;-1.97;91.69
2188;BME280;1100;52.014;8.540;2023-01-25T09:55:51;101897.16;;;-1.96;91.91
2188;BME280;1100;52.014;8.540;2023-01-25T09:58:20;101891.50;;;-2.00;91.89
2188;BME280;1100;52.014;8.540;2023-01-25T10:00:49;101886.16;;;-2.05;91.70
2188;BME280;1100;52.014;8.540;2023-01-25T10:03:41;101888.88;;;-2.05;91.74
2188;BME280;1100;52.014;8.540;2023-01-25T10:06:11;101883.94;;;-2.03;92.05
2188;BME280;1100;52.014;8.540;2023-01-25T10:11:27;101880.91;;;-2.02;91.85
2188;BME280;1100;52.014;8.540;2023-01-25T10:13:55;101886.66;;;-2.03;91.67
2188;BME280;1100;52.014;8.540;2023-01-25T10:22:14;101874.63;;;-2.02;91.68
2188;BME280;1100;52.014;8.540;2023-01-25T10:30:26;101863.56;;;-2.06;91.86
2188;BME280;1100;52.014;8.540;2023-01-25T10:32:54;101858.91;;;-2.05;91.74
2188;BME280;1100;52.014;8.540;2023-01-25T10:35:28;101852.06;;;-2.03;91.64
2188;BME280;1100;52.014;8.540;2023-01-25T10:37:58;101851.22;;;-2.03;91.64
2188;BME280;1100;52.014;8.540;2023-01-25T10:40:30;101848.72;;;-1.99;91.94
2188;BME280;1100;52.014;8.540;2023-01-25T10:43:02;101850.00;;;-1.97;91.97
2188;BME280;1100;52.014;8.540;2023-01-25T10:45:30;101842.94;;;-1.98;91.63
2188;BME280;1100;52.014;8.540;2023-01-25T10:47:59;101843.69;;;-2.06;91.81
2188;BME280;1100;52.014;8.540;2023-01-25T10:50:48;101841.25;;;-2.08;91.70
2188;BME280;1100;52.014;8.540;2023-01-25T10:58:46;101827.56;;;-2.17;91.54
2188;BME280;1100;52.014;8.540;2023-01-25T11:01:26;101814.44;;;-2.15;91.75
2188;BME280;1100;52.014;8.540;2023-01-25T11:03:52;101815.25;;;-2.14;91.84
2188;BME280;1100;52.014;8.540;2023-01-25T11:06:32;101820.69;;;-2.14;91.74
2188;BME280;1100;52.014;8.540;2023-01-25T11:08:57;101808.88;;;-2.09;92.06
2188;BME280;1100;52.014;8.540;2023-01-25T11:11:36;101808.34;;;-2.11;92.02
2188;BME280;1100;52.014;8.540;2023-01-25T11:14:26;101798.78;;;-2.09;91.90
2188;BME280;1100;52.014;8.540;2023-01-25T11:16:53;101783.97;;;-2.17;91.45
2188;BME280;1100;52.014;8.540;2023-01-25T11:19:37;101783.09;;;-2.26;91.57
2188;BME280;1100;52.014;8.540;2023-01-25T11:22:09;101777.47;;;-2.30;91.59
2188;BME280;1100;52.014;8.540;2023-01-25T11:24:44;101788.16;;;-2.33;91.45
2188;BME280;1100;52.014;8.540;2023-01-25T11:27:23;101777.41;;;-2.39;91.57
2188;BME280;1100;52.014;8.540;2023-01-25T11:32:30;101769.09;;;-2.33;92.09
2188;BME280;1100;52.014;8.540;2023-01-25T11:34:58;101756.97;;;-2.27;92.16
2188;BME280;1100;52.014;8.540;2023-01-25T11:40:06;101761.38;;;-2.40;91.88
2188;BME280;1100;52.014;8.540;2023-01-25T11:51:21;101729.63;;;-2.45;91.52
2188;BME280;1100;52.014;8.540;2023-01-25T12:04:55;101702.75;;;-2.60;92.05
2188;BME280;1100;52.014;8.540;2023-01-25T12:07:56;101694.06;;;-2.63;92.01
2188;BME280;1100;52.014;8.540;2023-01-25T12:10:21;101688.81;;;-2.59;92.33
2188;BME280;1100;52.014;8.540;2023-01-25T12:18:22;101685.03;;;-2.72;91.76
2188;BME280;1100;52.014;8.540;2023-01-25T12:21:12;101680.00;;;-2.79;91.67
2188;BME280;1100;52.014;8.540;2023-01-25T12:24:02;101674.56;;;-2.79;91.92
2188;BME280;1100;52.014;8.540;2023-01-25T12:26:38;101665.09;;;-2.81;91.82
2188;BME280;1100;52.014;8.540;2023-01-25T12:34:45;101640.59;;;-2.81;91.91
2188;BME280;1100;52.014;8.540;2023-01-25T12:39:45;101619.31;;;-2.79;92.09
2188;BME280;1100;52.014;8.540;2023-01-25T12:42:23;101605.69;;;-2.79;92.14
2188;BME280;1100;52.014;8.540;2023-01-25T12:45:18;101612.63;;;-2.73;92.29
2188;BME280;1100;52.014;8.540;2023-01-25T12:52:48;101586.09;;;-2.67;92.18
2188;BME280;1100;52.014;8.540;2023-01-25T12:55:16;101577.72;;;-2.71;92.01
2188;BME280;1100;52.014;8.540;2023-01-25T12:58:06;101577.22;;;-2.73;92.20
2188;BME280;1100;52.014;8.540;2023-01-25T13:00:43;101569.69;;;-2.76;92.01
2188;BME280;1100;52.014;8.540;2023-01-25T13:03:42;101570.81;;;-2.77;91.90
2188;BME280;1100;52.014;8.540;2023-01-25T13:06:43;101559.25;;;-2.83;91.99
2188;BME280;1100;52.014;8.540;2023-01-25T13:09:32;101551.63;;;-2.95;91.62
2188;BME280;1100;52.014;8.540;2023-01-25T13:12:02;101554.06;;;-2.93;92.21
2188;BME280;1100;52.014;8.540;2023-01-25T13:14:34;101550.66;;;-2.99;91.58
2188;BME280;1100;52.014;8.540;2023-01-25T13:17:32;101547.59;;;-3.06;91.75
2188;BME280;1100;52.014;8.540;2023-01-25T13:28:48;101527.09;;;-3.04;92.08
2188;BME280;1100;52.014;8.540;2023-01-25T13:37:20;101519.88;;;-3.08;92.27
2188;BME280;1100;52.014;8.540;2023-01-25T13:40:03;101523.72;;;-3.09;92.20
2188;BME280;1100;52.014;8.540;2023-01-25T13:42:34;101514.22;;;-3.12;92.40
2188;BME280;1100;52.014;8.540;2023-01-25T13:45:13;101515.56;;;-3.09;92.26
2188;BME280;1100;52.014;8.540;2023-01-25T13:47:43;101516.03;;;-3.07;92.71
2188;BME280;1100;52.014;8.540;2023-01-25T13:50:26;101504.84;;;-3.06;92.31
2188;BME280;1100;52.014;8.540;2023-01-25T13:53:01;101503.13;;;-3.02;92.28
2188;BME280;1100;52.014;8.540;2023-01-25T13:55:28;101502.63;;;-3.04;92.20
2188;BME280;1100;52.014;8.540;2023-01-25T13:58:34;101502.00;;;-3.01;92.36
2188;BME280;1100;52.014;8.540;2023-01-25T14:01:05;101495.25;;;-3.03;92.23
2188;BME280;1100;52.014;8.540;2023-01-25T14:03:40;101492.03;;;-3.05;92.43
2188;BME280;1100;52.014;8.540;2023-01-25T14:06:15;101485.31;;;-3.08;92.26
2188;BME280;1100;52.014;8.540;2023-01-25T14:08:42;101488.50;;;-3.06;92.75
2188;BME280;1100;52.014;8.540;2023-01-25T14:11:08;101475.09;;;-3.02;92.49
2188;BME280;1100;52.014;8.540;2023-01-25T14:13:33;101479.47;;;-2.92;92.92
2188;BME280;1100;52.014;8.540;2023-01-25T14:16:00;101467.16;;;-2.90;92.60
2188;BME280;1100;52.014;8.540;2023-01-25T14:18:32;101473.56;;;-2.85;92.67
2188;BME280;1100;52.014;8.540;2023-01-25T14:21:17;101478.22;;;-2.86;92.37
2188;BME280;1100;52.014;8.540;2023-01-25T14:23:44;101479.47;;;-2.92;92.13
2188;BME280;1100;52.014;8.540;2023-01-25T14:26:16;101477.81;;;-3.02;91.88
2188;BME280;1100;52.014;8.540;2023-01-25T14:28:44;101488.03;;;-3.08;92.12
2188;BME280;1100;52.014;8.540;2023-01-25T14:31:23;101484.16;;;-3.16;92.28
2188;BME280;1100;52.014;8.540;2023-01-25T14:33:49;101490.06;;;-3.14;92.75
2188;BME280;1100;52.014;8.540;2023-01-25T14:36:22;101486.28;;;-3.04;92.72
2188;BME280;1100;52.014;8.540;2023-01-25T14:38:47;101484.19;;;-3.07;92.08
2188;BME280;1100;52.014;8.540;2023-01-25T14:41:32;101484.63;;;-3.14;92.20
2188;BME280;1100;52.014;8.540;2023-01-25T14:44:02;101480.81;;;-3.13;92.43
2188;BME280;1100;52.014;8.540;2023-01-25T14:46:33;101482.91;;;-3.09;92.58
2188;BME280;1100;52.014;8.540;2023-01-25T14:51:42;101468.53;;;-3.01;92.38
2188;BME280;1100;52.014;8.540;2023-01-25T14:59:30;101461.69;;;-2.98;92.53
2188;BME280;1100;52.014;8.540;2023-01-25T15:05:04;101450.78;;;-2.98;92.60
2188;BME280;1100;52.014;8.540;2023-01-25T15:07:41;101450.78;;;-2.98;92.61
2188;BME280;1100;52.014;8.540;2023-01-25T15:13:20;101439.72;;;-3.02;92.60
2188;BME280;1100;52.014;8.540;2023-01-25T15:15:52;101439.59;;;-2.97;92.56
2188;BME280;1100;52.014;8.540;2023-01-25T15:18:43;101437.66;;;-2.96;92.70
2188;BME280;1100;52.014;8.540;2023-01-25T15:21:11;101434.78;;;-3.00;92.44